createdAt,value
2023-04-14T00:02:41.820Z,100621.09
2023-04-14T00:07:44.833Z,100617.66
2023-04-14T00:12:48.771Z,100622.00
2023-04-14T00:18:13.279Z,100618.50
2023-04-14T00:23:16.206Z,100621.16
2023-04-14T00:28:25.972Z,100625.50
2023-04-14T00:33:30.361Z,100619.44
2023-04-14T00:38:33.264Z,100619.50
2023-04-14T00:43:47.269Z,100623.00
2023-04-14T00:48:51.512Z,100626.44
2023-04-14T00:53:54.778Z,100611.81
2023-04-14T00:58:57.636Z,100624.81
2023-04-14T01:04:03.501Z,100623.97
2023-04-14T01:09:24.249Z,100622.22
2023-04-14T01:14:34.514Z,100630.88
2023-04-14T01:19:59.407Z,100630.88
2023-04-14T01:25:34.997Z,100631.81
2023-04-14T01:30:49.332Z,100638.75
2023-04-14T01:35:58.245Z,100642.19
2023-04-14T01:41:06.722Z,100642.25
2023-04-14T01:46:13.725Z,100641.34
2023-04-14T01:51:39.764Z,100647.63
2023-04-14T01:56:43.413Z,100660.78
2023-04-14T02:01:47.448Z,100645.88
2023-04-14T02:06:52.562Z,100644.06
2023-04-14T02:11:56.935Z,100654.47
2023-04-14T02:17:21.926Z,100654.47
2023-04-14T02:22:26.290Z,100652.91
2023-04-14T02:27:32.881Z,100652.00
2023-04-14T02:32:37.197Z,100658.94
2023-04-14T02:37:46.643Z,100661.69
2023-04-14T02:43:13.635Z,100660.94
2023-04-14T02:48:19.788Z,100662.53
2023-04-14T02:53:25.794Z,100666.19
2023-04-14T02:58:38.848Z,100671.25
2023-04-14T03:03:41.886Z,100680.72
2023-04-14T03:08:55.378Z,100676.41
2023-04-14T03:14:00.655Z,100677.28
2023-04-14T03:19:04.977Z,100679.06
2023-04-14T03:24:15.628Z,100677.31
2023-04-14T03:29:20.997Z,100681.75
2023-04-14T03:34:29.603Z,100685.28
2023-04-14T03:39:35.611Z,100684.50
2023-04-14T03:44:42.997Z,100690.50
2023-04-14T03:49:48.105Z,100688.75
2023-04-14T03:54:56.462Z,100693.91
2023-04-14T04:00:08.532Z,100698.28
2023-04-14T04:05:17.659Z,100705.19
2023-04-14T04:10:22.583Z,100708.63
2023-04-14T04:15:29.141Z,100708.66
2023-04-14T04:20:33.233Z,100710.44
2023-04-14T04:25:43.238Z,100710.41
2023-04-14T04:31:12.180Z,100707.84
2023-04-14T04:36:15.650Z,100721.63
2023-04-14T04:41:25.858Z,100719.88
2023-04-14T04:46:45.664Z,100724.22
2023-04-14T04:51:50.729Z,100726.88
2023-04-14T04:56:56.536Z,100725.19
2023-04-14T05:01:59.596Z,100734.59
2023-04-14T05:07:03.673Z,100728.53
2023-04-14T05:12:08.043Z,100730.34
2023-04-14T05:17:11.096Z,100734.59
2023-04-14T05:22:13.955Z,100735.38
2023-04-14T05:27:18.393Z,100736.22
2023-04-14T05:32:21.649Z,100738.72
2023-04-14T05:37:24.847Z,100737.81
2023-04-14T05:42:32.613Z,100748.09
2023-04-14T05:47:36.062Z,100745.44
2023-04-14T05:52:38.976Z,100731.69
2023-04-14T05:57:43.209Z,100737.66
2023-04-14T06:02:46.548Z,100740.22
2023-04-14T06:08:07.875Z,100735.72
2023-04-14T06:13:12.185Z,100736.44
2023-04-14T06:18:15.324Z,100734.63
2023-04-14T06:23:18.180Z,100740.66
2023-04-14T06:28:24.172Z,100719.72
2023-04-14T06:33:44.714Z,100723.81
2023-04-14T06:38:47.642Z,100725.69
2023-04-14T06:43:51.926Z,100735.53
2023-04-14T06:48:54.975Z,100745.38
2023-04-14T06:53:58.101Z,100745.75
2023-04-14T06:59:26.092Z,100747.03
2023-04-14T07:04:29.052Z,100752.50
2023-04-14T07:09:32.155Z,100751.28
2023-04-14T07:14:37.971Z,100775.63
2023-04-14T07:19:46.163Z,100799.97
2023-04-14T07:25:05.525Z,100808.34
2023-04-14T07:30:10.499Z,100816.28
2023-04-14T07:35:13.911Z,100820.41
2023-04-14T07:40:16.981Z,100830.31
2023-04-14T07:45:21.145Z,100811.41
2023-04-14T07:50:33.817Z,100813.75
2023-04-14T07:55:36.651Z,100818.81
2023-04-14T08:00:41.026Z,100823.66
2023-04-14T08:05:44.080Z,100821.69
2023-04-14T08:10:47.042Z,100829.69
2023-04-14T08:16:11.821Z,100833.59
2023-04-14T08:21:14.661Z,100830.53
2023-04-14T08:26:17.538Z,100829.34
2023-04-14T08:31:23.763Z,100837.44
2023-04-14T08:36:27.172Z,100834.44
2023-04-14T08:41:46.618Z,100832.81
2023-04-14T08:46:52.674Z,100835.13
2023-04-14T08:51:56.176Z,100832.75
2023-04-14T08:57:00.047Z,100824.59
2023-04-14T09:02:06.496Z,100842.28
2023-04-14T09:07:23.890Z,100839.06
2023-04-14T09:12:27.546Z,100826.31
2023-04-14T09:17:32.503Z,100831.81
2023-04-14T09:22:37.167Z,100815.78
2023-04-14T09:27:40.418Z,100828.50
2023-04-14T09:33:01.700Z,100827.75
2023-04-14T09:38:04.613Z,100837.91
2023-04-14T09:43:08.598Z,100825.94
2023-04-14T09:48:13.867Z,100816.84
2023-04-14T09:53:16.788Z,100821.34
2023-04-14T09:58:37.154Z,100827.91
2023-04-14T10:03:42.671Z,100820.94
2023-04-14T10:08:49.145Z,100825.91
2023-04-14T10:13:56.325Z,100815.69
2023-04-14T10:19:02.257Z,100812.41
2023-04-14T10:24:12.821Z,100815.69
2023-04-14T10:29:16.099Z,100804.53
2023-04-14T10:34:24.263Z,100806.69
2023-04-14T10:39:27.586Z,100793.75
2023-04-14T10:44:31.574Z,100788.72
2023-04-14T10:49:50.757Z,100782.56
2023-04-14T10:55:12.149Z,100776.63
2023-04-14T11:00:27.162Z,100781.69
2023-04-14T11:05:34.602Z,100766.38
2023-04-14T11:11:03.696Z,100766.75
2023-04-14T11:21:49.796Z,100766.59
2023-04-14T11:27:16.050Z,100758.91
2023-04-14T11:32:28.853Z,100750.09
2023-04-14T11:37:35.511Z,100758.84
2023-04-14T11:42:46.751Z,100765.13
2023-04-14T11:47:58.860Z,100767.13
2023-04-14T11:53:04.103Z,100751.00
2023-04-14T11:58:06.987Z,100759.31
2023-04-14T12:03:10.076Z,100764.19
2023-04-14T12:08:14.706Z,100763.34
2023-04-14T12:13:17.948Z,100774.00
2023-04-14T12:18:21.578Z,100768.63
2023-04-14T12:23:42.325Z,100763.94
2023-04-14T12:28:45.405Z,100759.06
2023-04-14T12:33:48.377Z,100756.19
2023-04-14T12:38:52.548Z,100757.81
2023-04-14T12:43:56.070Z,100748.75
2023-04-14T12:49:38.124Z,100754.88
2023-04-14T12:54:51.899Z,100743.78
2023-04-14T12:59:54.921Z,100745.03
2023-04-14T13:04:57.966Z,100747.22
2023-04-14T13:10:02.749Z,100740.28
2023-04-14T13:15:06.855Z,100744.84
2023-04-14T13:20:11.365Z,100730.03
2023-04-14T13:25:15.782Z,100735.47
2023-04-14T13:30:18.912Z,100733.97
2023-04-14T13:35:22.992Z,100724.78
2023-04-14T13:40:30.440Z,100730.81
2023-04-14T13:45:34.031Z,100725.81
2023-04-14T13:50:37.257Z,100724.50
2023-04-14T13:55:42.501Z,100702.75
2023-04-14T14:00:45.410Z,100710.28
2023-04-14T14:06:05.344Z,100699.06
2023-04-14T14:11:10.568Z,100717.59
2023-04-14T14:16:20.216Z,100716.34
2023-04-14T14:21:32.537Z,100711.81
2023-04-14T14:26:36.924Z,100713.19
2023-04-14T14:31:46.119Z,100699.75
2023-04-14T14:36:49.040Z,100685.00
2023-04-14T14:41:53.783Z,100688.94
2023-04-14T14:46:57.395Z,100695.13
2023-04-14T14:52:04.613Z,100697.00
2023-04-14T14:57:21.532Z,100685.06
2023-04-14T15:02:25.571Z,100692.38
2023-04-14T15:07:28.723Z,100681.78
2023-04-14T15:12:33.223Z,100690.19
2023-04-14T15:17:36.488Z,100688.66
2023-04-14T15:22:54.892Z,100694.13
2023-04-14T15:27:59.172Z,100683.19
2023-04-14T15:33:04.878Z,100691.25
2023-04-14T15:38:07.906Z,100678.56
2023-04-14T15:43:12.774Z,100676.78
2023-04-14T15:48:30.869Z,100691.72
2023-04-14T15:53:33.978Z,100701.63
2023-04-14T15:58:38.367Z,100690.94
2023-04-14T16:03:41.686Z,100701.47
2023-04-14T16:08:44.721Z,100688.94
2023-04-14T16:14:08.957Z,100695.22
2023-04-14T16:19:12.498Z,100694.44
2023-04-14T16:24:21.451Z,100690.91
2023-04-14T16:29:25.665Z,100711.69
2023-04-14T16:34:28.658Z,100711.06
2023-04-14T16:39:42.875Z,100708.13
2023-04-14T16:44:47.013Z,100711.94
2023-04-14T16:49:51.527Z,100701.56
2023-04-14T16:54:54.613Z,100703.34
2023-04-14T16:59:58.934Z,100692.88
2023-04-14T17:05:19.331Z,100693.81
2023-04-14T17:10:22.400Z,100698.28
2023-04-14T17:15:26.679Z,100701.13
2023-04-14T17:20:30.403Z,100703.47
2023-04-14T17:25:35.747Z,100697.16
2023-04-14T17:30:56.811Z,100703.97
2023-04-14T17:35:59.601Z,100707.19
2023-04-14T17:41:02.975Z,100723.81
2023-04-14T17:46:07.396Z,100732.28
2023-04-14T17:51:11.586Z,100748.84
2023-04-14T17:56:33.083Z,100759.50
2023-04-14T18:01:37.410Z,100746.81
2023-04-14T18:06:40.493Z,100751.78
2023-04-14T18:11:43.364Z,100751.13
2023-04-14T18:16:47.834Z,100756.72
2023-04-14T18:22:08.461Z,100758.38
2023-04-14T18:32:19.814Z,100772.28
2023-04-14T18:37:22.728Z,100776.22
2023-04-14T18:42:25.736Z,100770.25
2023-04-14T18:47:46.069Z,100775.72
2023-04-14T18:52:49.209Z,100779.50
2023-04-14T18:57:52.390Z,100785.25
2023-04-14T19:02:57.482Z,100779.97
2023-04-14T19:08:00.959Z,100786.66
2023-04-14T19:13:21.267Z,100791.41
2023-04-14T19:18:25.841Z,100790.75
2023-04-14T19:23:28.668Z,100798.16
2023-04-14T19:28:31.571Z,100806.19
2023-04-14T19:33:35.731Z,100811.13
2023-04-14T19:38:58.984Z,100814.50
2023-04-14T19:44:03.921Z,100813.03
2023-04-14T19:49:08.310Z,100823.50
2023-04-14T19:54:11.158Z,100820.94
2023-04-14T19:59:14.103Z,100825.97
2023-04-14T20:04:36.491Z,100824.66
2023-04-14T20:09:44.719Z,100833.25
2023-04-14T20:14:48.561Z,100825.16
2023-04-14T20:19:52.836Z,100824.88
2023-04-14T20:24:55.750Z,100819.97
2023-04-14T20:30:13.544Z,100822.56
2023-04-14T20:35:17.961Z,100826.59
2023-04-14T20:40:21.139Z,100809.00
2023-04-14T20:45:24.027Z,100822.19
2023-04-14T20:50:28.492Z,100819.84
2023-04-14T20:55:47.990Z,100811.03
2023-04-14T21:00:51.376Z,100814.88
2023-04-14T21:05:55.896Z,100811.50
2023-04-14T21:11:15.963Z,100811.81
2023-04-14T21:16:20.088Z,100810.78
2023-04-14T21:21:34.981Z,100812.31
2023-04-14T21:26:37.906Z,100811.81
2023-04-14T21:31:40.869Z,100815.25
2023-04-14T21:36:47.110Z,100820.25
2023-04-14T21:41:50.030Z,100817.31
2023-04-14T21:46:59.930Z,100826.16
2023-04-14T21:52:04.085Z,100838.16
2023-04-14T21:57:06.888Z,100838.44
2023-04-14T22:02:09.827Z,100840.94
2023-04-14T22:07:14.082Z,100846.84
2023-04-14T22:12:39.743Z,100844.41
2023-04-14T22:17:43.422Z,100845.81
2023-04-14T22:22:47.620Z,100848.72
2023-04-14T22:27:50.429Z,100854.44
2023-04-14T22:32:54.421Z,100851.59
2023-04-14T22:38:14.011Z,100858.03
2023-04-14T22:43:16.846Z,100858.34
2023-04-14T22:48:20.907Z,100867.72
2023-04-14T22:53:25.164Z,100873.16
2023-04-14T22:58:29.398Z,100873.94
2023-04-14T23:03:52.589Z,100870.28
2023-04-14T23:08:57.078Z,100873.75
2023-04-14T23:13:59.928Z,100887.22
2023-04-14T23:19:02.932Z,100889.44
2023-04-14T23:24:14.269Z,100893.69
2023-04-14T23:29:25.757Z,100894.63
2023-04-14T23:34:29.481Z,100886.47
2023-04-14T23:39:34.786Z,100899.88
2023-04-14T23:44:37.602Z,100900.88
2023-04-14T23:49:41.070Z,100908.94
2023-04-14T23:55:03.781Z,100903.69
